الصفحة الرئيسية
METAR-TAF:

METAR-TAF

مطار :

Resolute, نونافوت, كندا

دائرة عرض: 74-43N, خط طول: 094-59W, ارتفاع: 67 متر

مراقبة الطقس الحالي

تاريخ ووقت الإصدار 37 دقيقة قبل الساعة 17:00UTC
ريح 16 عقدة من الشمال الشرقي
درجة الحرارة -25°درجة مئوية
الرطوبة 69%
ضغط 1015 hPa
الرؤية: 24.1 كم
سماء صافية
بلورات ثلجية

METAR: CYRB 161700Z 04016KT 15SM IC SKC M25/M29 A2997 RMK PCPN VRY LGHT SLP163

زمن: 11:37 (17:37 UTC)

توقعات

تاريخ ووقت الإصدار 2ساعات و 30 دقيقة قبل الساعة 15:07UTC
التوقعات صالحة من16 الساعة 15 UTC إلى 17 الساعة 12 UTC
ريح 3 عقدةمن اتجاهات متغيرة
الرؤية: 10 كم
سماء صافية
بلورات ثلجية
مؤقت
من 16 الساعة 15 UTC إلى 16 الساعة 21 UTC
ريح 15 عقدة من الشمال الشرقي

TAF: CYRB 161507Z 1615/1712 VRB03KT P6SM IC SKC TEMPO 1615/1621 04015KT RMK NXT FCST BY 161800Z

أرصاد الطقس والتوقعات من أكثر من 4000 مطار (تقارير الطقس للمطار METAR والتنبؤ بالطقس بالمطارTAF).

المحطات المتاحة هي النقط الصفراء والحمراء على الخريطة.

حرك المؤشر فوق النقطة لمعرفة اسم المحطة.

ثم انقر لمعرفة أرصاد وتوقعات الطقس.

لتغيير الخارطة: اضغط على الأزرار الخضراء مع رمز الصليب الأسود للتكبير. على الزر الأخضر مع شرطة للتصغير، أو على الأسهم الخضراء للخرائط المجاورة.


METAR-TAF: